CYCB

Details ICAO CYCB (YCB)
Name CAMBRIDGE BAY
Region Canada
Timezone America/Cambridge_Bay (UTC-7.0)
Plans Departing 14
Arriving 5
Stats Elevation 90 ft / 27 m (AMSL)
Location 69.108056° -105.138334°
Runways 1
Magnetic Variation 6.949° E
Sunrise Unknown / Unknown
Sunset Unknown / Unknown
Advertisement - Login to hide

Runways

ID Width Length Bearing (true) Bearing (mag) Surface Threshold Offset Overrun Length
13T 150 ft / 46 m 5,006 ft / 1,526 m 127.39° 120.44° Gravel 0 ft / 0 m 0 ft / 0 m
31T 150 ft / 46 m 5,006 ft / 1,526 m 307.42° 300.47° Gravel 0 ft / 0 m 100 ft / 30 m

Map

Weather


0- 5 10 15 20 25 30 35+ Temperature / ° C

Clouds and Precipitation
Forecast for 2017-12-14 18:00 UTC. Updated 2 hours ago

Ground ~20,000 ft ~40,000 ft Winds

METAR

CYCB 141900Z 28005KT 8SM -SN FEW006 BKN025 BKN070 M20/M23 A3016 RMK SF1SC4AC2 VIS S-SW 15 SLP218

TAF

TAF TAF CYCB 141838Z 1419/1507 32005KT P6SM -SN FEW006 OVC025 TEMPO 1419/1507 4SM -SN SCT006 OVC020 RMK NXT FCST BY 150100Z

Frequencies

Unicom 122.10 MHz MANDATORY FREQ
Warning: Do not use this data for real-world aviation or navigation. No guarantee of current accuracy is given.